createdAt,value
2022-12-01T00:02:15.990Z,-3.25
2022-12-01T00:04:44.322Z,-3.26
2022-12-01T00:07:12.404Z,-3.27
2022-12-01T00:09:59.375Z,-3.28
2022-12-01T00:12:29.446Z,-3.28
2022-12-01T00:15:01.311Z,-3.30
2022-12-01T00:17:30.328Z,-3.32
2022-12-01T00:19:58.491Z,-3.33
2022-12-01T00:22:26.765Z,-3.33
2022-12-01T00:24:54.862Z,-3.34
2022-12-01T00:27:23.017Z,-3.33
2022-12-01T00:29:51.141Z,-3.34
2022-12-01T00:32:19.580Z,-3.35
2022-12-01T00:34:47.807Z,-3.37
2022-12-01T00:37:16.089Z,-3.38
2022-12-01T00:39:44.070Z,-3.40
2022-12-01T00:42:13.558Z,-3.42
2022-12-01T00:44:42.045Z,-3.43
2022-12-01T00:47:10.081Z,-3.45
2022-12-01T00:49:38.321Z,-3.46
2022-12-01T00:52:06.784Z,-3.48
2022-12-01T00:54:35.028Z,-3.49
2022-12-01T00:57:03.420Z,-3.49
2022-12-01T00:59:31.605Z,-3.48
2022-12-01T01:02:00.388Z,-3.48
2022-12-01T01:04:33.389Z,-3.49
2022-12-01T01:07:02.223Z,-3.49
2022-12-01T01:09:31.751Z,-3.47
2022-12-01T01:12:00.333Z,-3.47
2022-12-01T01:14:28.800Z,-3.48
2022-12-01T01:16:57.161Z,-3.50
2022-12-01T01:19:25.704Z,-3.50
2022-12-01T01:21:53.951Z,-3.50
2022-12-01T01:24:22.125Z,-3.52
2022-12-01T01:26:50.541Z,-3.53
2022-12-01T01:29:18.665Z,-3.55
2022-12-01T01:31:46.986Z,-3.58
2022-12-01T01:34:15.339Z,-3.60
2022-12-01T01:36:44.584Z,-3.63
2022-12-01T01:39:12.655Z,-3.64
2022-12-01T01:41:40.976Z,-3.62
2022-12-01T01:44:46.138Z,-3.58
2022-12-01T01:47:16.050Z,-3.55
2022-12-01T01:49:44.453Z,-3.55
2022-12-01T01:52:13.400Z,-3.54
2022-12-01T01:54:47.999Z,-3.53
2022-12-01T01:57:23.227Z,-3.54
2022-12-01T01:59:57.680Z,-3.56
2022-12-01T02:02:26.016Z,-3.58
2022-12-01T02:05:01.891Z,-3.60
2022-12-01T02:07:30.181Z,-3.61
2022-12-01T02:09:58.954Z,-3.64
2022-12-01T02:12:39.011Z,-3.67
2022-12-01T02:15:23.652Z,-3.70
2022-12-01T02:18:05.314Z,-3.74
2022-12-01T02:21:04.664Z,-3.76
2022-12-01T02:23:51.143Z,-3.78
2022-12-01T02:26:31.330Z,-3.82
2022-12-01T02:29:33.832Z,-3.84
2022-12-01T02:32:17.291Z,-3.86
2022-12-01T02:34:56.896Z,-3.87
2022-12-01T02:37:48.879Z,-3.88
2022-12-01T02:40:35.855Z,-3.88
2022-12-01T02:43:12.777Z,-3.89
2022-12-01T02:45:45.796Z,-3.92
2022-12-01T02:48:26.214Z,-3.92
2022-12-01T02:50:58.852Z,-3.92
2022-12-01T02:53:27.126Z,-3.92
2022-12-01T02:55:58.498Z,-3.95
2022-12-01T02:58:26.616Z,-3.96
2022-12-01T03:01:46.246Z,-3.96
2022-12-01T03:04:20.742Z,-3.96
2022-12-01T03:07:35.397Z,-3.96
2022-12-01T03:10:28.430Z,-3.98
2022-12-01T03:13:02.356Z,-3.99
2022-12-01T03:15:52.119Z,-3.99
2022-12-01T03:18:38.669Z,-3.98
2022-12-01T03:21:20.676Z,-3.98
2022-12-01T03:23:55.450Z,-3.99
2022-12-01T03:26:26.366Z,-3.98
2022-12-01T03:29:00.461Z,-3.97
2022-12-01T03:31:35.399Z,-3.96
2022-12-01T03:34:19.436Z,-3.96
2022-12-01T03:36:53.167Z,-3.95
2022-12-01T03:39:26.321Z,-3.95
2022-12-01T03:42:00.004Z,-3.95
2022-12-01T03:44:54.186Z,-3.92
2022-12-01T03:47:32.150Z,-3.90
2022-12-01T03:50:00.896Z,-3.88
2022-12-01T03:52:45.633Z,-3.88
2022-12-01T03:55:31.670Z,-3.87
2022-12-01T03:58:21.250Z,-3.88
2022-12-01T04:00:53.507Z,-3.88
2022-12-01T04:03:25.645Z,-3.88
2022-12-01T04:05:54.227Z,-3.89
2022-12-01T04:08:22.537Z,-3.92
2022-12-01T04:10:51.101Z,-3.95
2022-12-01T04:13:23.383Z,-3.96
2022-12-01T04:15:53.076Z,-3.98
2022-12-01T04:18:22.152Z,-4.01
2022-12-01T04:20:50.726Z,-4.02
2022-12-01T04:23:57.487Z,-4.03
2022-12-01T04:26:25.594Z,-4.04
2022-12-01T04:28:53.849Z,-4.05
2022-12-01T04:31:22.091Z,-4.04
2022-12-01T04:33:50.311Z,-4.04
2022-12-01T04:36:18.469Z,-4.05
2022-12-01T04:38:46.723Z,-4.07
2022-12-01T04:41:14.929Z,-4.09
2022-12-01T04:43:43.242Z,-4.10
2022-12-01T04:46:12.193Z,-4.12
2022-12-01T04:48:40.756Z,-4.13
2022-12-01T04:51:09.473Z,-4.14
2022-12-01T04:53:38.194Z,-4.16
2022-12-01T04:56:06.681Z,-4.18
2022-12-01T04:58:37.957Z,-4.16
2022-12-01T05:01:09.288Z,-4.15
2022-12-01T05:03:39.569Z,-4.15
2022-12-01T05:06:14.154Z,-4.13
2022-12-01T05:08:42.278Z,-4.14
2022-12-01T05:11:12.322Z,-4.13
2022-12-01T05:13:42.494Z,-4.15
2022-12-01T05:16:19.919Z,-4.16
2022-12-01T05:19:13.845Z,-4.19
2022-12-01T05:21:43.782Z,-4.20
2022-12-01T05:24:13.204Z,-4.22
2022-12-01T05:26:43.038Z,-4.22
2022-12-01T05:29:12.566Z,-4.24
2022-12-01T05:31:40.848Z,-4.23
2022-12-01T05:34:09.744Z,-4.22
2022-12-01T05:36:37.905Z,-4.21
2022-12-01T05:39:06.038Z,-4.20
2022-12-01T05:41:34.273Z,-4.21
2022-12-01T05:44:02.290Z,-4.23
2022-12-01T05:46:30.534Z,-4.24
2022-12-01T05:48:58.858Z,-4.25
2022-12-01T05:51:27.155Z,-4.24
2022-12-01T05:53:55.316Z,-4.25
2022-12-01T05:56:23.509Z,-4.27
2022-12-01T05:58:51.700Z,-4.28
2022-12-01T06:01:19.941Z,-4.30
2022-12-01T06:03:48.278Z,-4.32
2022-12-01T06:06:16.598Z,-4.32
2022-12-01T06:08:44.711Z,-4.32
2022-12-01T06:11:12.878Z,-4.32
2022-12-01T06:13:40.877Z,-4.32
2022-12-01T06:16:09.380Z,-4.32
2022-12-01T06:18:39.222Z,-4.32
2022-12-01T06:21:07.664Z,-4.30
2022-12-01T06:23:35.937Z,-4.26
2022-12-01T06:26:04.544Z,-4.23
2022-12-01T06:28:32.757Z,-4.18
2022-12-01T06:31:03.422Z,-4.13
2022-12-01T06:33:32.386Z,-4.10
2022-12-01T06:36:07.100Z,-4.04
2022-12-01T06:38:36.954Z,-3.97
2022-12-01T06:41:06.022Z,-3.90
2022-12-01T06:43:37.951Z,-3.80
2022-12-01T06:46:06.415Z,-3.71
2022-12-01T06:48:34.841Z,-3.63
2022-12-01T06:51:03.597Z,-3.56
2022-12-01T06:53:31.931Z,-3.48
2022-12-01T06:56:01.678Z,-3.39
2022-12-01T06:58:30.618Z,-3.28
2022-12-01T07:00:59.485Z,-3.17
2022-12-01T07:03:27.716Z,-3.02
2022-12-01T07:06:00.685Z,-2.88
2022-12-01T07:08:29.867Z,-2.71
2022-12-01T07:11:07.790Z,-2.54
2022-12-01T07:13:36.728Z,-2.34
2022-12-01T07:16:06.291Z,-2.15
2022-12-01T07:18:36.026Z,-1.95
2022-12-01T07:21:07.247Z,-1.77
2022-12-01T07:23:36.559Z,-1.60
2022-12-01T07:26:04.678Z,-1.42
2022-12-01T07:28:33.623Z,-1.22
2022-12-01T07:31:10.111Z,-1.02
2022-12-01T07:33:38.804Z,-0.82
2022-12-01T07:36:07.825Z,-0.60
2022-12-01T07:38:36.401Z,-0.40
2022-12-01T07:41:10.669Z,-0.19
2022-12-01T07:43:39.840Z,0.04
2022-12-01T07:46:22.372Z,0.28
2022-12-01T07:48:53.020Z,0.52
2022-12-01T07:51:22.327Z,0.72
2022-12-01T07:53:51.556Z,0.90
2022-12-01T07:56:21.396Z,1.06
2022-12-01T07:58:49.697Z,1.22
2022-12-01T08:01:20.657Z,1.38
2022-12-01T08:03:50.362Z,1.55
2022-12-01T08:06:19.173Z,1.72
2022-12-01T08:08:47.849Z,1.88
2022-12-01T08:11:19.632Z,2.04
2022-12-01T08:13:48.364Z,2.19
2022-12-01T08:16:18.724Z,2.33
2022-12-01T08:18:47.309Z,2.49
2022-12-01T08:21:18.039Z,2.64
2022-12-01T08:23:46.316Z,2.82
2022-12-01T08:26:17.908Z,2.99
2022-12-01T08:28:46.966Z,3.17
2022-12-01T08:31:31.794Z,3.35
2022-12-01T08:33:59.951Z,3.53
2022-12-01T11:31:00.456Z,8.18
2022-12-01T11:34:34.699Z,7.97
2022-12-01T11:37:06.874Z,7.79
2022-12-01T11:39:41.346Z,7.66
2022-12-01T11:42:12.185Z,7.53
2022-12-01T11:47:56.011Z,7.27
2022-12-01T11:50:27.462Z,7.22
2022-12-01T11:52:55.619Z,7.20
2022-12-01T11:55:27.153Z,7.16
2022-12-01T11:58:04.112Z,7.13
2022-12-01T12:00:47.481Z,7.16
2022-12-01T12:03:32.765Z,7.26
2022-12-01T12:06:42.337Z,7.40
2022-12-01T12:09:54.900Z,7.60
2022-12-01T12:12:36.687Z,7.80
2022-12-01T12:15:25.940Z,7.97
2022-12-01T12:17:54.018Z,8.22
2022-12-01T12:20:29.855Z,8.43
2022-12-01T12:23:34.776Z,8.58
2022-12-01T12:26:43.816Z,8.71
2022-12-01T12:29:27.163Z,8.81
2022-12-01T12:32:05.684Z,8.82
2022-12-01T12:34:39.385Z,8.82
2022-12-01T12:37:50.805Z,8.78
2022-12-01T12:40:30.558Z,8.73
2022-12-01T12:43:20.149Z,8.66
2022-12-01T12:46:06.664Z,8.64
2022-12-01T12:49:18.523Z,8.65
2022-12-01T12:51:50.726Z,8.66
2022-12-01T12:54:36.252Z,8.65
2022-12-01T12:57:28.927Z,8.65
2022-12-01T13:00:05.669Z,8.68
2022-12-01T13:02:58.865Z,8.65
2022-12-01T13:05:44.017Z,8.58
2022-12-01T13:08:24.256Z,8.51
2022-12-01T13:11:01.180Z,8.50
2022-12-01T13:13:55.945Z,8.50
2022-12-01T13:16:40.609Z,8.39
2022-12-01T13:19:11.353Z,8.23
2022-12-01T13:21:43.295Z,8.06
2022-12-01T13:24:23.000Z,7.87
2022-12-01T13:26:58.632Z,7.65
2022-12-01T13:29:29.577Z,7.45
2022-12-01T13:31:57.711Z,7.25
2022-12-01T13:34:30.702Z,7.06
2022-12-01T13:36:58.931Z,6.93
2022-12-01T13:39:36.324Z,6.85
2022-12-01T13:42:40.157Z,6.68
2022-12-01T13:45:37.702Z,6.56
2022-12-01T13:48:50.756Z,6.37
2022-12-01T13:56:17.876Z,6.18
2022-12-01T13:58:49.878Z,6.04
2022-12-01T14:01:29.655Z,5.91
2022-12-01T14:04:15.496Z,5.76
2022-12-01T14:06:59.986Z,5.62
2022-12-01T14:09:45.277Z,5.48
2022-12-01T14:16:58.609Z,5.18
2022-12-01T14:19:41.936Z,5.06
2022-12-01T14:22:35.705Z,4.95
2022-12-01T14:25:21.116Z,4.86
2022-12-01T14:27:57.884Z,4.78
2022-12-01T14:30:39.700Z,4.66
2022-12-01T14:33:48.894Z,4.55
2022-12-01T14:36:28.979Z,4.44
2022-12-01T14:38:59.982Z,4.35
2022-12-01T14:41:40.031Z,4.27
2022-12-01T14:44:31.668Z,4.21
2022-12-01T14:47:11.970Z,4.14
2022-12-01T14:50:06.587Z,4.08
2022-12-01T14:52:42.317Z,4.04
2022-12-01T14:55:25.279Z,4.02
2022-12-01T14:58:08.889Z,3.99
2022-12-01T15:00:38.394Z,3.96
2022-12-01T22:04:30.778Z,2.75
2022-12-01T22:06:58.109Z,2.75
2022-12-01T22:09:33.728Z,2.74
2022-12-01T22:12:09.475Z,2.74
2022-12-01T22:14:36.298Z,2.72
2022-12-01T22:17:05.680Z,2.70
2022-12-01T22:19:41.916Z,2.69
2022-12-01T22:22:08.473Z,2.67
2022-12-01T22:24:49.041Z,2.65
2022-12-01T22:27:21.821Z,2.64
2022-12-01T22:29:52.031Z,2.63
2022-12-01T22:32:31.158Z,2.62
2022-12-01T22:35:20.602Z,2.60
2022-12-01T22:37:52.017Z,2.59
2022-12-01T22:40:36.345Z,2.58
2022-12-01T22:43:15.324Z,2.56
2022-12-01T22:46:10.488Z,2.56
2022-12-01T22:48:44.929Z,2.56
2022-12-01T22:51:20.747Z,2.56
2022-12-01T22:53:47.784Z,2.56
2022-12-01T22:56:32.897Z,2.56
2022-12-01T22:59:00.264Z,2.56
2022-12-01T23:01:33.454Z,2.55
2022-12-01T23:04:24.462Z,2.55
2022-12-01T23:06:53.914Z,2.53
2022-12-01T23:09:23.013Z,2.54
2022-12-01T23:12:04.989Z,2.54
2022-12-01T23:14:33.590Z,2.55
2022-12-01T23:17:06.686Z,2.55
2022-12-01T23:19:34.253Z,2.55
2022-12-01T23:22:01.542Z,2.55
2022-12-01T23:24:33.474Z,2.56
2022-12-01T23:27:01.486Z,2.55
2022-12-01T23:29:29.698Z,2.56
2022-12-01T23:31:56.476Z,2.56
2022-12-01T23:34:23.149Z,2.58
2022-12-01T23:36:50.126Z,2.58
2022-12-01T23:39:18.432Z,2.59
2022-12-01T23:41:50.495Z,2.59
2022-12-01T23:44:40.293Z,2.60
2022-12-01T23:47:21.902Z,2.60
2022-12-01T23:50:01.877Z,2.62
2022-12-01T23:52:36.166Z,2.59
2022-12-01T23:55:15.176Z,2.64
2022-12-01T23:57:42.718Z,2.65
